Time;durP1;ratioP1;P1;durP2;ratioP2;P2;SDS_P1;SDS_P2;PMS_P1;PMS_P2;Temp;Humidity;BMP_temperature;BMP_pressure;BME280_temperature;BME280_humidity;BME280_pressure;Samples;Min_cycle;Max_cycle;Signal;HPM_P1;HPM_P2
2023/03/20 00:00:40;;;;;;;3.80;2.17;;;18.50;91.70;;;;;;5082307;28;20040;-62
2023/03/20 00:03:06;;;;;;;4.70;2.25;;;18.40;90.90;;;;;;5085123;28;20452;-61
2023/03/20 00:05:32;;;;;;;4.68;1.92;;;18.70;91.70;;;;;;5076357;28;20040;-61
2023/03/20 00:07:58;;;;;;;5.43;2.20;;;18.60;91.60;;;;;;5074090;28;20055;-73
2023/03/20 00:10:33;;;;;;;5.82;2.13;;;18.70;91.60;;;;;;5091868;28;20091;-72
2023/03/20 00:13:00;;;;;;;5.47;2.22;;;18.70;91.70;;;;;;5073535;28;20044;-72
2023/03/20 00:15:26;;;;;;;4.32;2.00;;;;;;;;;;5091029;28;20420;-73
2023/03/20 00:17:52;;;;;;;4.43;2.00;;;18.80;91.70;;;;;;5094131;28;20040;-72
2023/03/20 00:20:19;;;;;;;4.50;2.10;;;18.80;89.80;;;;;;5092519;28;20084;-63
2023/03/20 00:22:44;;;;;;;4.68;1.85;;;18.60;91.50;;;;;;5092531;28;20507;-61
2023/03/20 00:25:18;;;;;;;4.05;2.00;;;18.70;91.50;;;;;;5077241;28;20123;-61
2023/03/20 00:27:44;;;;;;;3.55;1.80;;;;;;;;;;5090554;28;20040;-61
2023/03/20 00:30:29;;;;;;;4.57;2.08;;;18.60;91.50;;;;;;5075960;28;20075;-61
2023/03/20 00:32:57;;;;;;;5.28;2.10;;;18.60;91.50;;;;;;5074746;28;20105;-71
2023/03/20 00:35:26;;;;;;;4.07;1.80;;;18.50;91.40;;;;;;5091061;28;20040;-73
2023/03/20 00:37:53;;;;;;;3.47;1.70;;;18.80;91.20;;;;;;5075354;28;20091;-73
2023/03/20 00:40:19;;;;;;;3.45;1.85;;;18.40;91.40;;;;;;5075539;28;20054;-72
2023/03/20 00:42:50;;;;;;;3.42;1.70;;;18.80;91.50;;;;;;5086077;28;20127;-70
2023/03/20 00:45:17;;;;;;;4.10;1.80;;;18.50;91.40;;;;;;5092487;28;20047;-61
2023/03/20 00:47:43;;;;;;;3.85;1.98;;;18.70;91.40;;;;;;5055544;28;20573;-70
2023/03/20 00:50:32;;;;;;;3.10;2.00;;;18.60;89.80;;;;;;5055112;28;20132;-71
2023/03/20 00:52:58;;;;;;;4.13;1.88;;;;;;;;;;5073299;28;20053;-72
2023/03/20 00:55:25;;;;;;;3.22;1.77;;;18.70;91.40;;;;;;5061742;28;20059;-72
2023/03/20 00:57:59;;;;;;;4.45;1.83;;;18.50;91.30;;;;;;5091662;28;20086;-72
2023/03/20 01:00:41;;;;;;;4.80;2.33;;;18.60;91.40;;;;;;5059764;28;20102;-73
2023/03/20 01:03:12;;;;;;;4.38;1.90;;;18.30;91.30;;;;;;5055199;28;20146;-72
2023/03/20 01:05:37;;;;;;;4.10;1.90;;;18.60;91.30;;;;;;5071673;28;20051;-61
2023/03/20 01:08:15;;;;;;;4.15;2.10;;;18.40;89.60;;;;;;5088467;28;20047;-61
2023/03/20 01:10:41;;;;;;;4.72;1.73;;;;;;;;;;5090344;28;20036;-63
2023/03/20 01:13:18;;;;;;;4.95;1.85;;;18.50;91.30;;;;;;5093033;28;20044;-62
2023/03/20 01:15:44;;;;;;;3.25;1.50;;;;;;;;;;5073844;28;20118;-61
2023/03/20 01:18:12;;;;;;;3.85;1.98;;;18.40;91.20;;;;;;5055683;28;20124;-61
2023/03/20 01:20:38;;;;;;;3.05;1.63;;;18.20;91.20;;;;;;5085829;28;20430;-63
2023/03/20 01:23:05;;;;;;;3.00;1.60;;;;;;;;;;5093007;28;20127;-62
2023/03/20 01:25:31;;;;;;;3.95;1.50;;;;;;;;;;5092618;28;20043;-61
2023/03/20 01:27:57;;;;;;;3.88;1.63;;;;;;;;;;5055070;28;20558;-62
2023/03/20 01:30:24;;;;;;;3.80;1.60;;;18.50;91.20;;;;;;5085972;28;20036;-61
2023/03/20 01:32:50;;;;;;;2.88;1.30;;;18.30;91.10;;;;;;5074253;28;20043;-62
2023/03/20 01:35:20;;;;;;;3.72;1.70;;;18.40;91.10;;;;;;5092700;28;20048;-62
2023/03/20 01:37:47;;;;;;;4.20;1.77;;;18.60;91.10;;;;;;5098690;28;20036;-61
2023/03/20 01:40:32;;;;;;;4.20;1.73;;;18.30;88.10;;;;;;5073384;28;20505;-62
2023/03/20 01:42:58;;;;;;;2.95;1.40;;;;;;;;;;5057232;28;20052;-62
2023/03/20 01:45:30;;;;;;;3.13;1.45;;;18.30;91.00;;;;;;5092851;28;20040;-62
2023/03/20 01:47:57;;;;;;;4.20;1.70;;;18.40;91.00;;;;;;5075115;28;20445;-62
2023/03/20 01:50:32;;;;;;;2.80;1.40;;;18.40;91.00;;;;;;5084248;28;20494;-62
2023/03/20 01:53:03;;;;;;;3.08;1.50;;;18.60;91.00;;;;;;5068346;28;20049;-61
2023/03/20 01:55:29;;;;;;;3.50;1.60;;;18.30;90.80;;;;;;5037736;28;20094;-61
2023/03/20 01:57:55;;;;;;;2.67;1.60;;;18.40;91.00;;;;;;5072564;28;20044;-63
2023/03/20 02:00:22;;;;;;;2.88;1.48;;;18.20;90.90;;;;;;5077908;28;20058;-63
2023/03/20 02:02:48;;;;;;;3.38;1.77;;;;;;;;;;5096919;28;20394;-62
2023/03/20 02:05:16;;;;;;;2.33;1.40;;;18.00;90.80;;;;;;5088330;28;20052;-62
2023/03/20 02:07:42;;;;;;;3.70;1.40;;;;;;;;;;5067293;28;20089;-62
2023/03/20 02:10:10;;;;;;;4.60;1.60;;;18.30;90.80;;;;;;5058122;28;20052;-62
2023/03/20 02:12:36;;;;;;;3.83;1.52;;;;;;;;;;5063078;28;20432;-63
2023/03/20 02:15:03;;;;;;;3.00;1.40;;;18.20;90.80;;;;;;5096093;28;20567;-61
2023/03/20 02:17:30;;;;;;;3.70;1.60;;;;;;;;;;5093121;28;20379;-62
2023/03/20 02:20:30;;;;;;;4.20;1.60;;;18.30;90.80;;;;;;5094754;28;20083;-61
2023/03/20 02:22:58;;;;;;;4.25;1.55;;;18.40;90.80;;;;;;5086904;28;20044;-61
2023/03/20 02:25:45;;;;;;;3.35;1.70;;;18.20;87.40;;;;;;5088109;28;20058;-62
2023/03/20 02:28:46;;;;;;;5.22;1.83;;;18.20;90.70;;;;;;5092518;28;20086;-72
2023/03/20 02:31:30;;;;;;;3.80;1.70;;;18.30;88.10;;;;;;5080949;28;20058;-61
2023/03/20 02:34:22;;;;;;;5.05;1.70;;;18.20;87.00;;;;;;5093202;28;20409;-62
2023/03/20 02:37:03;;;;;;;3.33;1.50;;;18.30;90.70;;;;;;5079100;28;20048;-63
2023/03/20 02:39:35;;;;;;;4.68;1.83;;;18.50;89.20;;;;;;5086528;28;20055;-61
2023/03/20 02:42:22;;;;;;;2.80;1.33;;;18.20;90.70;;;;;;5081219;28;20422;-64
2023/03/20 02:45:18;;;;;;;3.05;1.38;;;18.40;87.00;;;;;;5041093;28;20066;-61
2023/03/20 02:47:47;;;;;;;3.92;1.52;;;18.40;90.70;;;;;;5078805;28;20040;-64
2023/03/20 02:50:22;;;;;;;4.07;1.55;;;18.90;87.10;;;;;;5094050;28;20192;-62
2023/03/20 02:52:55;;;;;;;4.82;1.60;;;18.40;88.90;;;;;;5078257;28;20067;-65
2023/03/20 02:55:21;;;;;;;5.68;1.92;;;18.30;90.70;;;;;;5077940;28;20036;-61
2023/03/20 02:57:57;;;;;;;5.55;1.60;;;18.20;88.30;;;;;;5092125;28;20174;-61
2023/03/20 03:00:25;;;;;;;4.57;1.90;;;18.10;88.20;;;;;;5060203;28;20048;-61
2023/03/20 03:02:57;;;;;;;3.28;1.60;;;18.20;90.50;;;;;;5075173;28;20506;-61
2023/03/20 03:05:39;;;;;;;3.65;1.80;;;18.30;90.60;;;;;;5073541;28;20411;-61
2023/03/20 03:08:05;;;;;;;3.65;1.50;;;18.30;90.60;;;;;;5073358;28;20056;-62
2023/03/20 03:10:39;;;;;;;4.43;1.90;;;18.40;90.60;;;;;;5064269;28;20032;-61
2023/03/20 03:13:05;;;;;;;3.55;1.70;;;18.10;90.50;;;;;;5077179;28;20521;-60
2023/03/20 03:15:41;;;;;;;4.00;1.60;;;18.20;90.50;;;;;;5061526;28;20127;-61
2023/03/20 03:18:11;;;;;;;4.32;1.90;;;18.00;90.50;;;;;;5075478;28;20113;-61
2023/03/20 03:20:37;;;;;;;4.15;2.03;;;18.20;90.50;;;;;;5051786;28;20044;-61
2023/03/20 03:23:04;;;;;;;4.55;1.65;;;;;;;;;;5057072;28;20171;-62
2023/03/20 03:25:33;;;;;;;7.18;2.35;;;17.90;90.40;;;;;;5093699;28;20375;-60
2023/03/20 03:28:04;;;;;;;5.45;1.88;;;17.90;86.90;;;;;;5052278;28;20410;-62
2023/03/20 03:30:31;;;;;;;6.90;2.15;;;18.20;90.10;;;;;;5068432;28;20052;-62
2023/03/20 03:33:15;;;;;;;4.53;2.03;;;18.30;90.50;;;;;;5085546;28;20151;-63
2023/03/20 03:35:41;;;;;;;5.57;1.90;;;18.10;90.50;;;;;;5095006;28;20072;-61
2023/03/20 03:38:27;;;;;;;6.60;2.10;;;18.00;90.40;;;;;;5093724;28;20098;-64
2023/03/20 03:40:59;;;;;;;5.60;2.20;;;18.30;90.50;;;;;;5076485;28;20124;-61
2023/03/20 03:43:34;;;;;;;5.03;2.05;;;18.20;88.40;;;;;;5093642;28;20205;-61
2023/03/20 03:46:08;;;;;;;5.07;2.20;;;18.00;88.20;;;;;;5097769;28;20457;-64
2023/03/20 03:48:37;;;;;;;5.93;1.92;;;18.20;90.40;;;;;;5077396;28;20465;-71
2023/03/20 03:51:06;;;;;;;6.25;2.20;;;18.10;90.40;;;;;;5074604;28;20444;-72
2023/03/20 03:53:35;;;;;;;4.95;2.20;;;18.30;87.70;;;;;;5039842;28;20044;-70
2023/03/20 03:56:06;;;;;;;4.78;2.35;;;18.10;90.30;;;;;;5073986;28;20459;-72
2023/03/20 03:58:38;;;;;;;4.75;2.20;;;18.20;90.30;;;;;;5090103;28;20052;-70
2023/03/20 04:01:04;;;;;;;5.50;2.00;;;18.10;90.30;;;;;;5080240;28;20096;-72
2023/03/20 04:03:32;;;;;;;6.25;2.42;;;16.10;86.40;;;;;;5058705;28;20036;-72
2023/03/20 04:05:58;;;;;;;5.43;2.20;;;18.20;90.30;;;;;;5086180;28;20183;-61
2023/03/20 04:08:24;;;;;;;6.88;2.55;;;18.20;90.30;;;;;;5038743;28;20078;-61
2023/03/20 04:10:50;;;;;;;6.68;2.35;;;18.20;90.30;;;;;;5092529;28;20056;-62
2023/03/20 04:13:16;;;;;;;5.60;2.60;;;;;;;;;;5089543;28;20119;-62
2023/03/20 04:15:42;;;;;;;7.10;2.88;;;18.20;90.20;;;;;;5109917;28;20059;-61
2023/03/20 04:18:15;;;;;;;6.43;2.38;;;18.20;90.30;;;;;;5113283;28;20140;-62
2023/03/20 04:20:41;;;;;;;;;;;18.30;87.90;;;;;;5114499;28;20055;-64
2023/03/20 04:23:07;;;;;;;6.03;2.50;;;18.30;90.30;;;;;;5103777;28;19924;-62
2023/03/20 04:25:33;;;;;;;7.28;2.35;;;18.20;90.30;;;;;;5064298;28;20060;-61
2023/03/20 04:27:59;;;;;;;7.28;2.80;;;18.10;90.30;;;;;;5085341;28;20039;-62
2023/03/20 04:30:25;;;;;;;9.63;3.20;;;18.00;90.20;;;;;;5094779;28;20048;-66
2023/03/20 04:32:50;;;;;;;6.43;2.53;;;18.20;90.20;;;;;;5104953;28;20086;-61
2023/03/20 04:35:16;;;;;;;6.95;3.00;;;18.10;90.20;;;;;;5075537;28;20424;-63
2023/03/20 04:37:42;;;;;;;6.82;2.83;;;;;;;;;;5103801;28;20079;-61
2023/03/20 04:40:09;;;;;;;6.95;3.00;;;18.30;90.20;;;;;;5100876;28;20087;-63
2023/03/20 04:42:35;;;;;;;7.72;3.10;;;;;;;;;;5100044;28;20055;-63
2023/03/20 04:45:01;;;;;;;6.47;2.85;;;18.30;90.20;;;;;;5091788;28;20036;-61
2023/03/20 04:47:26;;;;;;;8.95;3.55;;;18.10;90.20;;;;;;5106069;28;20035;-61
2023/03/20 04:49:52;;;;;;;6.78;3.75;;;18.00;90.10;;;;;;5112416;28;20043;-61
2023/03/20 04:52:18;;;;;;;6.90;2.63;;;;;;;;;;5101846;28;20105;-62
2023/03/20 04:54:44;;;;;;;7.35;2.85;;;;;;;;;;5109009;28;20039;-62
2023/03/20 04:57:10;;;;;;;6.35;3.05;;;18.10;90.10;;;;;;5071657;28;20043;-62
2023/03/20 04:59:36;;;;;;;7.15;3.10;;;18.10;90.10;;;;;;5101226;28;20036;-61
2023/03/20 05:02:01;;;;;;;7.28;3.17;;;18.10;90.10;;;;;;5090507;28;20040;-62
2023/03/20 05:04:27;;;;;;;7.75;3.35;;;18.00;90.00;;;;;;5074938;28;20048;-62
2023/03/20 05:06:53;;;;;;;8.05;3.55;;;;;;;;;;5092693;28;20501;-63
2023/03/20 05:09:19;;;;;;;6.85;2.97;;;18.00;90.00;;;;;;5092602;28;20036;-63
2023/03/20 05:11:45;;;;;;;7.80;3.95;;;18.00;90.00;;;;;;5094658;28;20478;-62
2023/03/20 05:14:11;;;;;;;8.57;3.47;;;18.00;90.00;;;;;;5086458;28;20051;-61
2023/03/20 05:16:37;;;;;;;7.68;3.72;;;18.10;90.00;;;;;;5072669;28;20078;-64
2023/03/20 05:19:03;;;;;;;8.60;3.50;;;;;;;;;;5086916;28;20041;-71
2023/03/20 05:21:29;;;;;;;7.68;3.05;;;18.10;88.00;;;;;;5091239;28;20044;-70
2023/03/20 05:23:55;;;;;;;7.25;3.30;;;18.00;89.90;;;;;;5092045;28;20040;-69
2023/03/20 05:26:20;;;;;;;6.90;3.28;;;18.00;88.80;;;;;;5092918;28;20039;-72
2023/03/20 05:28:46;;;;;;;8.07;3.70;;;18.00;90.00;;;;;;5092801;28;20044;-62
2023/03/20 05:31:12;;;;;;;7.97;3.40;;;17.90;89.90;;;;;;5084327;28;20473;-62
2023/03/20 05:33:38;;;;;;;7.75;3.35;;;18.10;90.00;;;;;;5072671;28;20525;-71
2023/03/20 05:36:04;;;;;;;7.55;3.45;;;17.90;89.90;;;;;;5074997;28;20048;-61
2023/03/20 05:38:30;;;;;;;9.10;3.22;;;17.90;89.90;;;;;;5054846;28;20048;-72
2023/03/20 05:40:59;;;;;;;9.35;3.42;;;17.70;89.80;;;;;;5085118;28;20048;-72
2023/03/20 05:43:25;;;;;;;7.03;3.03;;;;;;;;;;5092576;28;20545;-71
2023/03/20 05:45:52;;;;;;;7.78;3.22;;;17.90;89.90;;;;;;5092843;28;20062;-72
2023/03/20 05:48:17;;;;;;;6.13;2.97;;;18.00;89.90;;;;;;5085344;28;20040;-71
2023/03/20 05:50:43;;;;;;;8.10;2.95;;;18.20;87.10;;;;;;5100334;28;20413;-70
2023/03/20 05:53:09;;;;;;;8.65;3.30;;;18.00;89.90;;;;;;5092452;28;20044;-71
2023/03/20 05:55:35;;;;;;;7.25;3.15;;;;;;;;;;5092704;28;20064;-70
2023/03/20 05:58:01;;;;;;;6.50;2.85;;;18.00;89.30;;;;;;5092129;28;20044;-62
2023/03/20 06:00:27;;;;;;;7.35;3.03;;;18.00;89.80;;;;;;5092591;28;20113;-63
2023/03/20 06:02:53;;;;;;;8.57;3.22;;;18.10;89.80;;;;;;5091278;28;20086;-61
2023/03/20 06:05:18;;;;;;;6.35;2.65;;;18.00;89.80;;;;;;5066887;28;20057;-62
2023/03/20 06:07:45;;;;;;;7.53;3.13;;;;;;;;;;5086512;28;20102;-63
2023/03/20 06:10:10;;;;;;;6.18;2.90;;;17.90;89.70;;;;;;5091416;28;20075;-61
2023/03/20 06:12:36;;;;;;;6.25;2.85;;;17.90;89.30;;;;;;5092548;28;20090;-61
2023/03/20 06:15:02;;;;;;;7.68;3.53;;;17.80;89.60;;;;;;5103592;28;20133;-61
2023/03/20 06:17:28;;;;;;;6.95;3.05;;;17.80;89.50;;;;;;5091976;28;20512;-62
2023/03/20 06:19:54;;;;;;;6.65;3.45;;;17.60;89.40;;;;;;5096677;28;20124;-62
2023/03/20 06:22:20;;;;;;;6.75;2.63;;;18.10;89.60;;;;;;5084118;28;20041;-62
2023/03/20 06:24:46;;;;;;;7.15;3.00;;;17.80;89.40;;;;;;5066473;28;20080;-63
2023/03/20 06:27:12;;;;;;;7.05;3.13;;;;;;;;;;5105375;28;20142;-66
2023/03/20 06:29:38;;;;;;;6.22;2.97;;;17.80;89.40;;;;;;5112452;28;20036;-61
2023/03/20 06:32:06;;;;;;;5.97;2.72;;;18.00;89.40;;;;;;5095508;28;20051;-64
2023/03/20 06:34:32;;;;;;;7.15;3.22;;;18.00;89.00;;;;;;5090370;28;20572;-62
2023/03/20 06:36:58;;;;;;;6.20;2.53;;;18.00;89.40;;;;;;5092333;28;20087;-64
2023/03/20 06:39:24;;;;;;;6.65;2.80;;;18.00;89.40;;;;;;5083888;28;20040;-62
2023/03/20 06:41:50;;;;;;;5.55;2.75;;;17.90;89.30;;;;;;5071834;28;20457;-61
2023/03/20 06:44:15;;;;;;;6.45;2.42;;;18.00;89.20;;;;;;5066231;28;20157;-61
2023/03/20 06:46:41;;;;;;;6.10;2.95;;;17.60;89.00;;;;;;5091933;28;20051;-63
2023/03/20 06:49:07;;;;;;;5.93;3.20;;;18.00;89.30;;;;;;5091513;28;20044;-63
2023/03/20 06:51:33;;;;;;;6.65;2.92;;;;;;;;;;5092271;28;20048;-66
2023/03/20 06:53:59;;;;;;;9.18;3.08;;;17.80;88.90;;;;;;5093962;28;20123;-61
2023/03/20 06:56:25;;;;;;;7.53;3.00;;;17.90;89.10;;;;;;5094871;28;20044;-61
2023/03/20 06:58:51;;;;;;;7.32;3.17;;;17.60;88.90;;;;;;5095690;28;20036;-66
2023/03/20 07:01:19;;;;;;;7.88;2.90;;;17.90;89.00;;;;;;5095307;28;20449;-62
2023/03/20 07:03:45;;;;;;;6.82;2.78;;;17.60;88.80;;;;;;5094283;28;20047;-66
2023/03/20 07:06:11;;;;;;;5.35;2.72;;;18.00;88.90;;;;;;5090994;28;20439;-61
2023/03/20 07:08:37;;;;;;;5.35;2.42;;;17.80;88.80;;;;;;5081882;28;20040;-62
2023/03/20 07:11:03;;;;;;;6.85;3.28;;;17.90;88.80;;;;;;5094712;28;20044;-62
2023/03/20 07:13:29;;;;;;;6.10;2.72;;;17.80;85.40;;;;;;5086176;28;20052;-63
2023/03/20 07:15:57;;;;;;;6.78;2.88;;;18.00;88.80;;;;;;5094964;28;20106;-66
2023/03/20 07:18:24;;;;;;;6.25;2.70;;;17.50;88.50;;;;;;5093151;28;20052;-61
2023/03/20 07:20:54;;;;;;;6.38;2.70;;;17.90;88.70;;;;;;5093758;28;20048;-61
2023/03/20 07:23:19;;;;;;;5.38;2.80;;;18.00;88.70;;;;;;5057711;28;20055;-62
2023/03/20 07:25:46;;;;;;;6.22;3.35;;;18.00;88.70;;;;;;5095059;28;20044;-72
2023/03/20 07:28:11;;;;;;;6.40;2.90;;;18.10;88.70;;;;;;5094929;28;20189;-74
2023/03/20 07:30:37;;;;;;;6.50;2.97;;;17.60;88.40;;;;;;5088349;28;20122;-74
2023/03/20 07:33:03;;;;;;;6.55;2.85;;;17.60;88.40;;;;;;5093917;28;20028;-71
2023/03/20 07:35:29;;;;;;;7.93;3.30;;;17.70;88.40;;;;;;5094844;28;20046;-75
2023/03/20 07:37:55;;;;;;;6.05;2.97;;;;;;;;;;5094996;28;20051;-67
2023/03/20 07:40:21;;;;;;;5.68;2.80;;;17.90;88.30;;;;;;5090865;28;20044;-75
2023/03/20 07:42:46;;;;;;;7.13;3.10;;;18.00;88.40;;;;;;5090871;28;20477;-75
2023/03/20 07:45:13;;;;;;;6.85;2.72;;;17.90;88.30;;;;;;5091044;28;20080;-70
2023/03/20 07:47:39;;;;;;;6.75;3.30;;;18.20;88.40;;;;;;5064495;28;20490;-70
2023/03/20 07:50:05;;;;;;;7.43;3.00;;;18.10;88.30;;;;;;5085712;28;20056;-71
2023/03/20 07:52:31;;;;;;;6.30;3.33;;;18.00;88.20;;;;;;5103045;28;20510;-70
2023/03/20 07:54:57;;;;;;;7.47;3.13;;;17.70;87.90;;;;;;5098126;28;20044;-63
2023/03/20 07:57:22;;;;;;;6.57;2.97;;;18.10;88.00;;;;;;5080861;28;20503;-62
2023/03/20 07:59:48;;;;;;;6.85;3.13;;;17.90;88.00;;;;;;5091628;28;20044;-64
2023/03/20 08:02:15;;;;;;;5.47;2.88;;;17.90;87.90;;;;;;5097550;28;20055;-63
2023/03/20 08:04:41;;;;;;;6.07;2.80;;;18.60;84.70;;;;;;5075982;28;22692;-63
2023/03/20 08:07:07;;;;;;;6.07;3.38;;;18.10;88.00;;;;;;5091604;28;20370;-63
2023/03/20 08:09:33;;;;;;;7.60;3.10;;;;;;;;;;5092760;28;20040;-63
2023/03/20 08:11:59;;;;;;;8.48;3.75;;;18.20;87.60;;;;;;5089150;28;20072;-64
2023/03/20 08:14:25;;;;;;;6.53;3.40;;;;;;;;;;5114283;28;20095;-63
2023/03/20 08:16:52;;;;;;;5.60;3.10;;;;;;;;;;5085484;28;20060;-63
2023/03/20 08:19:17;;;;;;;6.70;3.35;;;18.10;87.80;;;;;;5081654;28;20044;-63
2023/03/20 08:21:43;;;;;;;5.85;3.25;;;18.10;87.80;;;;;;5097761;28;20048;-61
2023/03/20 08:24:09;;;;;;;8.52;3.15;;;18.10;87.70;;;;;;5090545;28;20123;-61
2023/03/20 08:26:35;;;;;;;8.48;3.33;;;18.20;87.70;;;;;;5092030;28;20074;-74
2023/03/20 08:29:01;;;;;;;6.95;3.85;;;17.90;87.50;;;;;;5084306;28;20036;-65
2023/03/20 08:31:27;;;;;;;8.13;3.70;;;;;;;;;;5074432;28;20055;-68
2023/03/20 08:33:53;;;;;;;8.80;3.55;;;18.30;87.60;;;;;;5090020;28;20047;-67
2023/03/20 08:36:20;;;;;;;8.40;3.38;;;18.20;85.10;;;;;;5093515;28;20086;-74
2023/03/20 08:38:47;;;;;;;9.40;3.95;;;18.20;87.50;;;;;;5091965;28;20134;-63
2023/03/20 08:41:12;;;;;;;7.13;3.08;;;18.20;85.80;;;;;;5091327;28;20387;-66
2023/03/20 08:43:38;;;;;;;7.18;3.17;;;18.30;87.40;;;;;;5086191;28;20051;-67
2023/03/20 08:46:04;;;;;;;8.20;3.70;;;17.50;83.00;;;;;;5073113;28;20053;-62
2023/03/20 08:48:31;;;;;;;10.60;3.75;;;;;;;;;;5065911;28;20111;-62
2023/03/20 08:50:56;;;;;;;7.97;3.60;;;18.30;87.30;;;;;;5096463;28;20052;-73
2023/03/20 08:53:22;;;;;;;9.43;3.85;;;18.40;87.50;;;;;;5072122;28;20082;-65
2023/03/20 08:55:49;;;;;;;8.20;3.63;;;18.60;86.30;;;;;;5063335;28;20124;-67
2023/03/20 08:58:15;;;;;;;10.35;3.53;;;;;;;;;;5089260;28;20044;-67
2023/03/20 09:00:41;;;;;;;9.15;3.75;;;18.70;87.50;;;;;;5088181;28;20044;-71
2023/03/20 09:03:08;;;;;;;8.43;3.90;;;18.60;87.30;;;;;;5091752;28;20363;-73
2023/03/20 09:05:36;;;;;;;7.20;3.50;;;18.60;87.30;;;;;;5075024;28;20039;-72
2023/03/20 09:08:02;;;;;;;7.75;3.42;;;;;;;;;;5108293;28;20043;-73
2023/03/20 09:10:29;;;;;;;9.13;3.70;;;;;;;;;;5094889;28;20051;-73
2023/03/20 09:12:55;;;;;;;10.32;4.00;;;;;;;;;;5079980;28;20124;-72
2023/03/20 09:15:21;;;;;;;7.18;3.58;;;18.50;87.10;;;;;;5092425;28;20473;-72
2023/03/20 09:17:47;;;;;;;10.27;4.07;;;18.60;87.00;;;;;;5089476;28;20087;-73
2023/03/20 09:20:13;;;;;;;10.43;4.57;;;18.50;86.80;;;;;;5097432;28;20051;-73
2023/03/20 09:22:41;;;;;;;10.80;4.13;;;;;;;;;;5091519;28;20040;-75
2023/03/20 09:25:07;;;;;;;7.78;3.88;;;18.70;86.60;;;;;;5073075;28;20079;-66
2023/03/20 09:27:33;;;;;;;7.50;3.80;;;;;;;;;;5092409;28;20048;-68
2023/03/20 09:29:59;;;;;;;7.72;3.88;;;;;;;;;;5090233;28;20055;-63
2023/03/20 09:32:25;;;;;;;8.02;3.92;;;18.80;86.40;;;;;;5078791;28;20051;-73
2023/03/20 09:34:51;;;;;;;10.55;4.13;;;18.70;86.30;;;;;;5090744;28;20040;-66
2023/03/20 09:37:17;;;;;;;8.90;4.85;;;19.00;86.30;;;;;;5075971;28;20043;-73
2023/03/20 09:39:43;;;;;;;9.57;4.30;;;18.50;85.90;;;;;;5099366;28;20040;-68
2023/03/20 09:42:40;;;;;;;7.15;4.03;;;19.10;86.00;;;;;;5090149;28;20044;-69
2023/03/20 09:45:24;;;;;;;7.82;3.72;;;19.00;85.90;;;;;;5083771;28;20040;-62
2023/03/20 09:47:50;;;;;;;9.88;4.40;;;;;;;;;;5093066;28;20078;-72
2023/03/20 09:50:39;;;;;;;9.60;4.10;;;19.10;85.30;;;;;;5098297;28;20114;-70
2023/03/20 09:53:15;;;;;;;8.02;3.95;;;19.00;85.60;;;;;;5088491;28;20048;-65
2023/03/20 09:55:41;;;;;;;8.15;3.80;;;19.00;84.00;;;;;;5075475;28;20541;-64
2023/03/20 09:58:30;;;;;;;8.18;3.85;;;18.90;80.80;;;;;;5038682;28;20052;-65
2023/03/20 10:00:57;;;;;;;9.88;4.15;;;19.10;82.50;;;;;;5094697;28;20055;-64
2023/03/20 10:03:32;;;;;;;8.52;4.13;;;19.00;85.50;;;;;;5089092;28;20036;-62
2023/03/20 10:05:58;;;;;;;7.85;4.05;;;;;;;;;;5071437;28;20131;-66
2023/03/20 10:08:35;;;;;;;9.07;4.13;;;19.00;85.20;;;;;;5090722;28;20040;-62
2023/03/20 10:11:01;;;;;;;10.07;3.95;;;;;;;;;;5090510;28;20052;-74
2023/03/20 10:13:58;;;;;;;8.30;3.70;;;19.20;85.20;;;;;;5089302;28;20036;-74
2023/03/20 10:16:30;;;;;;;10.50;4.65;;;19.10;85.20;;;;;;5069604;28;20498;-74
2023/03/20 10:18:59;;;;;;;;;;;19.20;82.60;;;;;;5081806;28;20056;-71
2023/03/20 10:21:37;;;;;;;7.78;3.88;;;19.30;82.00;;;;;;5083794;28;19920;-72
2023/03/20 10:24:04;;;;;;;7.85;3.85;;;18.90;84.90;;;;;;5052216;28;20504;-66
2023/03/20 10:26:34;;;;;;;9.35;3.92;;;19.20;85.00;;;;;;5077265;28;20505;-69
2023/03/20 10:29:01;;;;;;;7.70;3.80;;;19.40;85.10;;;;;;5076244;28;20154;-68
2023/03/20 10:31:33;;;;;;;7.32;3.42;;;19.10;83.70;;;;;;5075013;28;20124;-71
2023/03/20 10:34:26;;;;;;;9.07;3.83;;;19.30;85.00;;;;;;5092867;28;20036;-72
2023/03/20 10:36:54;;;;;;;15.38;3.50;;;19.20;81.80;;;;;;5081535;28;20048;-62
2023/03/20 10:39:54;;;;;;;7.10;3.65;;;19.10;84.80;;;;;;5047887;28;20111;-61
2023/03/20 10:42:23;;;;;;;8.07;3.50;;;19.10;84.80;;;;;;5058255;28;20060;-64
2023/03/20 10:45:03;;;;;;;7.35;3.78;;;19.10;81.90;;;;;;5075800;28;20439;-61
2023/03/20 10:47:29;;;;;;;11.52;4.15;;;19.00;84.60;;;;;;5077405;28;20042;-61
2023/03/20 10:49:57;;;;;;;7.43;3.75;;;19.20;84.80;;;;;;5081754;28;20044;-61
2023/03/20 10:52:28;;;;;;;7.03;3.40;;;19.20;84.70;;;;;;5082166;28;20051;-61
2023/03/20 10:55:10;;;;;;;7.57;3.10;;;19.10;84.70;;;;;;5068100;28;20074;-62
2023/03/20 10:57:41;;;;;;;6.53;2.90;;;19.20;84.70;;;;;;5077449;28;20493;-61
2023/03/20 11:00:18;;;;;;;6.85;3.58;;;19.10;81.60;;;;;;5077480;28;20037;-61
2023/03/20 11:02:45;;;;;;;8.32;3.33;;;;;;;;;;5053707;28;20495;-71
2023/03/20 11:05:27;;;;;;;7.78;3.75;;;18.80;84.50;;;;;;5093083;28;20107;-61
2023/03/20 11:08:01;;;;;;;8.18;3.35;;;19.00;79.80;;;;;;5075137;28;20044;-63
2023/03/20 11:10:27;;;;;;;8.32;3.45;;;;;;;;;;5075886;28;20437;-63
2023/03/20 11:12:53;;;;;;;6.25;3.20;;;18.90;84.50;;;;;;5065958;28;20107;-62
2023/03/20 11:15:45;;;;;;;8.25;2.90;;;18.70;80.70;;;;;;5085593;28;20055;-64
2023/03/20 11:18:13;;;;;;;23.65;4.43;;;19.10;83.60;;;;;;5103128;28;20397;-78
2023/03/20 11:20:59;;;;;;;8.85;3.30;;;19.10;81.60;;;;;;5091706;28;20151;-74
2023/03/20 11:23:27;;;;;;;8.23;3.50;;;19.10;84.90;;;;;;5077604;28;20044;-64
2023/03/20 11:26:00;;;;;;;7.85;3.28;;;19.00;84.70;;;;;;5073016;28;20049;-77
2023/03/20 11:28:51;;;;;;;7.28;3.25;;;19.00;84.80;;;;;;5044706;28;20052;-79
2023/03/20 11:31:34;;;;;;;8.77;3.60;;;19.00;84.80;;;;;;5056442;28;20525;-72
2023/03/20 11:34:11;;;;;;;6.70;3.38;;;19.10;84.90;;;;;;5067953;28;20450;-62
2023/03/20 11:36:39;;;;;;;8.02;4.00;;;19.00;84.90;;;;;;5075580;28;20075;-63
2023/03/20 11:39:13;;;;;;;7.43;3.60;;;18.60;84.50;;;;;;5084538;28;20047;-64
2023/03/20 11:41:58;;;;;;;11.85;3.97;;;19.00;84.90;;;;;;5075099;28;20055;-64
2023/03/20 11:44:32;;;;;;;9.02;3.28;;;19.00;84.80;;;;;;5094958;28;20052;-62
2023/03/20 11:47:15;;;;;;;8.05;3.47;;;18.90;80.10;;;;;;5088492;28;20040;-76
2023/03/20 11:49:51;;;;;;;7.90;3.05;;;18.60;84.60;;;;;;5090330;28;20045;-62
2023/03/20 11:52:27;;;;;;;7.85;3.30;;;18.90;84.80;;;;;;5058632;28;20117;-73
2023/03/20 11:54:56;;;;;;;7.97;3.78;;;19.10;83.40;;;;;;5091916;28;20044;-62
2023/03/20 11:57:34;;;;;;;7.65;3.60;;;19.10;84.90;;;;;;5100197;28;20118;-70
2023/03/20 12:00:37;;;;;;;8.15;3.15;;;19.00;81.90;;;;;;5085181;28;20127;-62
2023/03/20 12:03:03;;;;;;;5.80;3.40;;;;;;;;;;5079951;28;20036;-66
2023/03/20 12:05:36;;;;;;;7.63;3.25;;;19.00;84.70;;;;;;5090941;28;20394;-61
2023/03/20 12:08:24;;;;;;;5.45;2.67;;;18.80;80.20;;;;;;5093131;28;20098;-63
2023/03/20 12:10:56;;;;;;;7.07;3.10;;;18.90;84.80;;;;;;5089948;28;20109;-73
2023/03/20 12:13:25;;;;;;;6.97;3.13;;;18.90;84.70;;;;;;5089871;28;20044;-70
2023/03/20 12:15:54;;;;;;;6.68;3.53;;;18.70;81.40;;;;;;5072320;28;20052;-64
2023/03/20 12:19:02;;;;;;;10.88;3.40;;;18.70;79.90;;;;;;5071643;28;20056;-77
2023/03/20 12:21:51;;;;;;;8.98;2.95;;;18.50;84.50;;;;;;5018470;28;20042;-78
2023/03/20 12:24:35;;;;;;;8.80;2.80;;;18.80;84.70;;;;;;5008437;28;20103;-63
2023/03/20 12:27:14;;;;;;;7.53;3.90;;;;;;;;;;5015084;28;20835;-81
2023/03/20 12:29:46;;;;;;;5.45;2.72;;;18.60;84.60;;;;;;5013728;28;20058;-80
2023/03/20 12:32:26;;;;;;;8.32;2.78;;;18.90;83.70;;;;;;4999179;28;20097;-80
2023/03/20 12:35:14;;;;;;;5.72;2.28;;;18.90;82.20;;;;;;4982597;28;20163;-72
2023/03/20 12:37:40;;;;;;;5.70;2.30;;;18.60;84.70;;;;;;4986527;28;20052;-72
2023/03/20 12:40:12;;;;;;;5.63;2.28;;;18.50;84.70;;;;;;4996039;28;20049;-80
2023/03/20 12:42:53;;;;;;;6.35;2.63;;;18.30;79.80;;;;;;5007695;28;20164;-62
2023/03/20 12:45:20;;;;;;;7.82;2.60;;;18.30;84.60;;;;;;5025872;28;20045;-66
2023/03/20 12:47:55;;;;;;;6.03;2.30;;;18.70;84.80;;;;;;5014354;28;20542;-78
2023/03/20 12:50:26;;;;;;;6.38;2.42;;;18.70;84.80;;;;;;5020592;28;20045;-70
2023/03/20 12:53:18;;;;;;;6.82;2.42;;;18.60;84.80;;;;;;5033174;28;20076;-62
2023/03/20 12:56:15;;;;;;;6.40;2.45;;;18.40;80.10;;;;;;5053340;28;20422;-64
2023/03/20 12:58:53;;;;;;;5.00;2.40;;;18.70;80.80;;;;;;5090853;28;20445;-65
2023/03/20 13:01:19;;;;;;;8.27;2.47;;;18.80;85.00;;;;;;5072874;28;20055;-64
2023/03/20 13:04:09;;;;;;;10.77;3.00;;;18.80;81.00;;;;;;5074883;28;20048;-62
2023/03/20 13:07:00;;;;;;;18.50;3.53;;;18.50;80.20;;;;;;5072722;28;20123;-64
2023/03/20 13:09:35;;;;;;;5.85;2.72;;;18.70;80.40;;;;;;5062814;28;20412;-65
2023/03/20 13:12:19;;;;;;;12.38;2.60;;;18.20;85.00;;;;;;5088379;28;20051;-61
2023/03/20 13:14:57;;;;;;;14.15;2.95;;;18.50;85.10;;;;;;5071798;28;20090;-61
2023/03/20 13:17:50;;;;;;;9.93;2.50;;;18.50;80.50;;;;;;5070407;28;20122;-65
2023/03/20 13:20:57;;;;;;;9.77;3.25;;;18.50;81.00;;;;;;5074177;28;20389;-67